メインページ
METAR-TAF:

METAR-TAF

空港 :

ロマン・トメトゥチェル国際空港

コロール, バベルダオブ島, パラオ

緯度: 07-22N, 経度: 134-32E, 海抜: 54m

現時点の気象観測

当レポートは20分前の04:50(UTC)に作成
の風 7kt、最大15ktの突風を伴う
気温 31°C
湿度 75%
気圧 1008 hPa
視程: 20.9km
高度1500ftの千切れ雲あり, 塔状積雲.
高度13000ftの千切れ雲あり
高度30000ftの千切れ雲あり

METAR: PTRO 250450Z 08007G15KT 13SM BKN015TCU BKN130 BKN300 31/26 A2978 RMK TCU NE-E AND SW-W

時間: 14:10 (05:10 UTC)

予報

当レポートは24分前の04:46(UTC)に作成
予報は25日の 05時(UTC)から 25日の 24時(UTC)まで有効
東/北東の風 11kt
視程: 10km
高度1500ftの雲は散在している
高度13000ftの雲は散在している
近辺でにわか雨,

TAF: PTRO 250446Z 2505/2524 07011KT P6SM VCSH SCT015 SCT130

4,000以上の空港の気象観測と天気予報(METAR報とTAF報)

利用可能な観測所は地図上に黄色い丸と赤い丸で示す。

丸の上にカーソルを重ねると観測所名を参照できる。

次にクリックすると気象観測と天気予報を参照できる。

マップの切り替え:黒色「×」印の緑ボタンをクリックして拡大、「-」印の緑ボタンをクリックして縮小、緑色の三角印をクリックして隣りの地図に切り替え


METAR-TAF: